Portada
METAR-TAF:

METAR-TAF

Aeroports :

Rafha, Aràbia Saudita

latitud: 29-37N, longitud: 043-29E, altitud: 449 m

Observació

L'informe es va fer fa 54 minuts, a les 17:00 UTC
Vent calma
Temperatura 11°C
Humitat 43%
Pressió 1014 hPa
Visibilitat 10 km o més
sense núvols per sota de 1500 mi sense presència de cumulonimbus.

METAR: OERF 071700Z 00000KT CAVOK 11/M01 Q1014 NOSIG

Hora: 20:54 (17:54 UTC)

Pronòstic

L'informe es va fer fa 6 hores i 54 minuts, a les 11:00 UTC
Pronòstic vàlid del 07 a les 12 UTC al 08 a les 18 UTC
Vent 14 kt del Oest
Visibilitat: 7000 m
Temporalment
l' 07 a les 12 UTC al 07 a les 20 UTC
Visibilitat: 2000 m
torb alta de pols
Evolucionant progressivament
l' 07 a les 20 UTC al 07 a les 22 UTC
Vent 3 kt amb direcció variable
Evolucionant progressivament
l' 08 a les 00 UTC al 08 a les 02 UTC
Vent 15 kt del Oest

TAF: OERF 071100Z 0712/0818 28014KT 7000 NSC TEMPO 0712/0720 2000 BLDU BECMG 0720/0722 VRB03KT BECMG 0800/0802 27015KT

Observacions i pronòstics meteorològics de més de 4000 aeroports (METAR i TAF).

Les estacions disponibles són els punts grocs i vermells al mapa.

Posi el ratolí al punt desitjat per veure el nom de l'estació.

Feu clic per veure les observacions i els pronòstics meteorològics.

Per canviar el mapa: feu clic els botons verds amb una creu de color negre per apropar; al botó verd amb un guió per allunyar la imatge; o en les fletxes verdes per a mapes adjacents.


METAR-TAF: